Time;durP1;ratioP1;P1;durP2;ratioP2;P2;SDS_P1;SDS_P2;PMS_P1;PMS_P2;Temp;Humidity;BMP_temperature;BMP_pressure;BME280_temperature;BME280_humidity;BME280_pressure;Samples;Min_cycle;Max_cycle;Signal;HPM_P1;HPM_P2
2021/12/04 00:00:47;;;;;;;28.25;15.73;;;2.00;99.90;;;;;;4976092;28;20035;-75
2021/12/04 00:03:13;;;;;;;30.33;16.63;;;1.90;99.90;;;;;;4975690;28;20038;-75
2021/12/04 00:05:43;;;;;;;27.73;16.08;;;1.90;99.90;;;;;;4976110;28;20466;-76
2021/12/04 00:08:09;;;;;;;31.13;17.33;;;1.80;99.90;;;;;;4975877;28;20034;-75
2021/12/04 00:10:35;;;;;;;29.30;16.90;;;1.80;99.90;;;;;;4975659;28;20113;-75
2021/12/04 00:13:01;;;;;;;30.65;17.60;;;1.80;99.90;;;;;;4975685;28;20035;-75
2021/12/04 00:15:28;;;;;;;37.97;21.48;;;1.70;99.90;;;;;;4975493;28;20054;-75
2021/12/04 00:17:56;;;;;;;36.15;21.48;;;1.70;99.90;;;;;;4975598;28;20034;-75
2021/12/04 00:20:24;;;;;;;37.22;22.05;;;1.70;99.90;;;;;;4975527;28;20393;-75
2021/12/04 00:22:56;;;;;;;35.15;21.83;;;1.60;99.90;;;;;;4975522;28;20026;-75
2021/12/04 00:25:22;;;;;;;38.13;22.75;;;1.60;99.90;;;;;;4975060;28;20027;-75
2021/12/04 00:27:48;;;;;;;34.65;20.83;;;1.60;99.90;;;;;;4975148;28;20027;-76
2021/12/04 00:30:13;;;;;;;36.80;21.02;;;1.60;99.90;;;;;;4975533;28;20090;-74
2021/12/04 00:32:42;;;;;;;40.55;21.38;;;1.60;99.90;;;;;;4975379;28;20404;-73
2021/12/04 00:35:15;;;;;;;35.63;20.77;;;1.70;99.90;;;;;;4974955;28;20026;-74
2021/12/04 00:51:14;;;;;;;40.40;24.83;;;1.80;99.90;;;;;;4975089;28;20050;-75
2021/12/04 00:53:40;;;;;;;40.13;24.25;;;2.00;99.90;;;;;;4975048;28;20034;-75
2021/12/04 00:56:06;;;;;;;43.72;24.60;;;1.90;99.90;;;;;;4974973;28;20030;-74
2021/12/04 00:58:32;;;;;;;41.70;24.75;;;2.00;99.90;;;;;;4989748;28;20485;-74
2021/12/04 01:00:58;;;;;;;39.80;23.15;;;2.10;99.90;;;;;;4974758;28;20038;-74
2021/12/04 01:03:25;;;;;;;39.08;23.95;;;2.10;99.90;;;;;;4974922;28;20061;-74
2021/12/04 01:05:51;;;;;;;39.50;22.83;;;2.10;99.90;;;;;;4974910;28;20031;-74
2021/12/04 01:08:17;;;;;;;42.80;24.45;;;2.10;99.90;;;;;;4974475;28;20381;-74
2021/12/04 01:10:43;;;;;;;41.83;23.05;;;2.10;99.90;;;;;;4974644;28;20485;-73
2021/12/04 01:13:12;;;;;;;38.55;23.92;;;2.10;99.90;;;;;;4990108;28;20489;-74
2021/12/04 01:15:43;;;;;;;40.97;22.63;;;2.10;99.90;;;;;;4974188;28;20062;-74
2021/12/04 01:18:10;;;;;;;41.88;21.90;;;2.10;99.90;;;;;;4974637;28;20162;-74
2021/12/04 01:20:37;;;;;;;29.63;19.30;;;2.00;99.90;;;;;;4974626;28;20027;-74
2021/12/04 01:23:04;;;;;;;34.22;20.90;;;2.00;99.90;;;;;;4974594;28;20377;-74
2021/12/04 01:25:30;;;;;;;37.15;21.17;;;2.00;99.90;;;;;;4974556;28;20548;-74
2021/12/04 01:27:56;;;;;;;40.92;23.08;;;1.90;99.90;;;;;;4974435;28;20078;-74
2021/12/04 01:30:22;;;;;;;37.70;22.85;;;2.00;99.90;;;;;;4974236;28;20082;-74
2021/12/04 01:32:48;;;;;;;34.05;21.73;;;2.00;99.90;;;;;;4973228;28;20043;-75
2021/12/04 01:35:14;;;;;;;34.00;19.88;;;2.00;99.90;;;;;;4974506;28;20385;-75
2021/12/04 01:37:40;;;;;;;33.88;20.63;;;1.90;99.90;;;;;;4974417;28;20023;-75
2021/12/04 01:40:06;;;;;;;33.63;20.15;;;1.80;99.90;;;;;;4974224;28;20070;-75
2021/12/04 01:42:35;;;;;;;35.78;20.65;;;1.80;99.90;;;;;;4989232;28;20481;-74
2021/12/04 01:45:03;;;;;;;37.22;20.13;;;1.80;99.90;;;;;;4974137;28;20442;-75
2021/12/04 01:47:29;;;;;;;33.72;19.27;;;1.80;99.90;;;;;;4974320;28;20141;-75
2021/12/04 01:49:55;;;;;;;32.92;18.45;;;1.70;99.90;;;;;;4974204;28;20534;-74
2021/12/04 01:52:22;;;;;;;31.08;19.88;;;1.70;99.90;;;;;;4974235;28;20033;-76
2021/12/04 01:54:50;;;;;;;31.30;19.63;;;1.70;99.90;;;;;;4974162;28;20114;-75
2021/12/04 01:57:16;;;;;;;31.23;19.10;;;1.60;99.90;;;;;;4973999;28;20038;-75
2021/12/04 01:59:43;;;;;;;30.38;18.80;;;1.50;99.90;;;;;;4974063;28;20371;-74
2021/12/04 02:02:09;;;;;;;32.25;19.25;;;1.40;99.90;;;;;;4988969;28;20057;-75
2021/12/04 02:04:35;;;;;;;38.15;20.08;;;1.30;99.90;;;;;;4974021;28;20390;-74
2021/12/04 02:07:04;;;;;;;34.05;19.73;;;1.30;99.90;;;;;;4974144;28;20106;-75
2021/12/04 02:09:34;;;;;;;34.13;21.55;;;1.20;99.90;;;;;;4976539;28;20026;-74
2021/12/04 02:12:03;;;;;;;36.28;22.27;;;1.20;99.90;;;;;;4978001;28;20041;-74
2021/12/04 02:14:30;;;;;;;45.53;27.42;;;1.20;99.90;;;;;;4977643;28;20035;-74
2021/12/04 02:16:56;;;;;;;42.30;25.02;;;1.20;99.90;;;;;;4977795;28;20362;-74
2021/12/04 02:19:22;;;;;;;44.00;29.23;;;1.20;99.90;;;;;;4977977;28;20054;-74
2021/12/04 02:21:48;;;;;;;43.97;26.70;;;1.20;99.90;;;;;;4977899;28;20074;-74
2021/12/04 02:24:13;;;;;;;39.13;25.73;;;1.20;99.90;;;;;;4977804;28;20121;-74
2021/12/04 02:26:39;;;;;;;40.17;24.02;;;1.30;99.90;;;;;;4977807;28;20097;-74
2021/12/04 02:29:05;;;;;;;38.63;23.30;;;1.40;99.90;;;;;;4977577;28;20146;-74
2021/12/04 02:31:31;;;;;;;34.22;21.45;;;1.40;99.90;;;;;;4977771;28;20054;-74
2021/12/04 02:33:57;;;;;;;32.58;21.20;;;1.50;99.90;;;;;;4977795;28;20030;-74
2021/12/04 02:36:23;;;;;;;35.78;22.25;;;1.60;99.90;;;;;;4977689;28;20373;-72
2021/12/04 02:38:51;;;;;;;36.80;22.67;;;1.60;99.90;;;;;;4977525;28;20023;-75
2021/12/04 02:41:21;;;;;;;30.88;20.70;;;1.70;99.90;;;;;;4977358;28;20023;-74
2021/12/04 02:43:48;;;;;;;31.52;19.95;;;1.70;99.90;;;;;;4977404;28;20033;-74
2021/12/04 02:46:16;;;;;;;31.88;18.10;;;1.70;99.90;;;;;;4977447;28;20089;-74
2021/12/04 02:48:43;;;;;;;30.48;17.67;;;1.70;99.90;;;;;;4977386;28;20031;-75
2021/12/04 02:51:09;;;;;;;30.92;16.58;;;1.70;99.90;;;;;;4977415;28;20517;-74
2021/12/04 02:53:36;;;;;;;28.05;16.83;;;1.70;99.90;;;;;;4977141;28;20051;-74
2021/12/04 02:56:04;;;;;;;29.48;16.15;;;1.70;99.90;;;;;;4977257;28;20035;-73
2021/12/04 02:58:32;;;;;;;23.05;14.35;;;1.70;99.90;;;;;;4976240;28;20023;-74
2021/12/04 03:00:59;;;;;;;26.33;15.15;;;1.70;99.90;;;;;;4976749;28;20037;-74
2021/12/04 03:03:26;;;;;;;24.85;14.95;;;1.70;99.90;;;;;;4977184;28;20033;-73
2021/12/04 03:05:52;;;;;;;28.40;16.85;;;1.80;99.90;;;;;;4977071;28;20119;-73
2021/12/04 03:08:18;;;;;;;29.65;17.23;;;1.90;99.90;;;;;;4976784;28;20101;-74
2021/12/04 03:10:46;;;;;;;23.88;13.90;;;1.80;99.90;;;;;;4976631;28;20039;-74
2021/12/04 03:13:12;;;;;;;30.70;14.80;;;1.90;99.90;;;;;;4976613;28;20485;-74
2021/12/04 03:15:41;;;;;;;25.42;14.25;;;1.80;99.90;;;;;;4976394;28;20074;-74
2021/12/04 03:18:07;;;;;;;24.23;13.90;;;1.80;99.90;;;;;;4976728;28;20169;-74
2021/12/04 03:20:40;;;;;;;27.08;14.35;;;1.80;99.90;;;;;;4976664;28;20110;-74
2021/12/04 03:23:12;;;;;;;;;;;1.80;99.90;;;;;;4976870;28;20039;-74
2021/12/04 03:25:38;;;;;;;26.27;13.32;;;1.90;99.90;;;;;;4976651;28;20352;-75
2021/12/04 03:28:06;;;;;;;23.05;13.60;;;1.80;99.90;;;;;;4976425;28;20027;-74
2021/12/04 03:30:45;;;;;;;25.63;13.27;;;2.00;99.90;;;;;;4976583;28;20504;-73
2021/12/04 03:41:07;;;;;;;23.65;12.05;;;2.00;99.90;;;;;;4976090;28;20460;-75
2021/12/04 03:43:33;;;;;;;25.73;14.02;;;2.00;99.90;;;;;;4976322;28;20061;-75
2021/12/04 03:46:03;;;;;;;23.63;13.65;;;2.10;99.90;;;;;;4976329;28;20054;-76
2021/12/04 03:50:58;;;;;;;25.08;14.07;;;2.10;99.90;;;;;;4975819;28;20493;-75
2021/12/04 03:53:24;;;;;;;23.55;13.70;;;2.20;99.90;;;;;;4976203;28;20034;-75
2021/12/04 03:55:51;;;;;;;25.52;14.45;;;2.30;99.90;;;;;;4976070;28;20042;-75
2021/12/04 03:58:18;;;;;;;21.85;13.00;;;2.30;99.90;;;;;;4975662;28;20037;-75
2021/12/04 04:00:45;;;;;;;19.73;12.40;;;2.30;99.90;;;;;;4976137;28;20057;-74
2021/12/04 04:03:11;;;;;;;27.70;15.65;;;2.40;99.90;;;;;;4975828;28;20532;-74
2021/12/04 04:05:36;;;;;;;34.85;16.95;;;2.40;99.90;;;;;;4975790;28;20023;-73
2021/12/04 04:08:03;;;;;;;26.10;14.30;;;2.40;99.90;;;;;;4975700;28;20394;-74
2021/12/04 04:10:29;;;;;;;26.20;16.35;;;2.50;99.90;;;;;;4975636;28;20062;-75
2021/12/04 04:12:54;;;;;;;24.55;15.02;;;2.50;99.90;;;;;;4975483;28;20140;-73
2021/12/04 04:15:22;;;;;;;28.58;16.27;;;2.60;99.90;;;;;;4990339;28;20055;-74
2021/12/04 04:17:49;;;;;;;26.77;15.32;;;2.60;99.90;;;;;;4990881;28;20646;-74
2021/12/04 04:20:19;;;;;;;23.38;14.13;;;2.60;99.90;;;;;;4990795;28;20041;-75
2021/12/04 04:22:46;;;;;;;23.90;14.77;;;2.60;99.90;;;;;;4975567;28;20418;-75
2021/12/04 04:25:14;;;;;;;29.80;17.98;;;2.60;99.90;;;;;;4975613;28;20073;-75
2021/12/04 04:27:40;;;;;;;34.67;19.08;;;2.60;99.90;;;;;;4975446;28;20081;-74
2021/12/04 04:30:11;;;;;;;28.35;16.75;;;2.60;99.90;;;;;;4975257;28;20130;-74
2021/12/04 04:32:38;;;;;;;29.55;16.63;;;2.60;99.90;;;;;;4974647;28;20107;-74
2021/12/04 04:35:13;;;;;;;31.40;16.30;;;2.60;99.90;;;;;;4975024;28;20031;-74
2021/12/04 04:38:08;;;;;;;29.75;16.52;;;2.60;99.90;;;;;;4975344;28;20448;-74
2021/12/04 05:12:59;;;;;;;36.42;18.42;;;2.00;99.90;;;;;;4974195;28;20054;-74
2021/12/04 05:18:36;;;;;;;31.73;18.67;;;2.10;99.90;;;;;;4991416;28;20473;-74
2021/12/04 05:21:05;;;;;;;30.35;18.95;;;2.20;99.90;;;;;;4991401;28;20023;-74
2021/12/04 05:23:45;;;;;;;28.55;16.85;;;2.20;99.90;;;;;;4991146;28;20030;-74
2021/12/04 05:26:18;;;;;;;31.05;16.75;;;2.30;99.90;;;;;;4990981;28;20034;-73
2021/12/04 05:28:45;;;;;;;31.40;17.60;;;2.30;99.90;;;;;;4991239;28;20409;-74
2021/12/04 05:31:11;;;;;;;25.85;14.60;;;2.40;99.90;;;;;;4991033;28;20349;-73
2021/12/04 05:33:37;;;;;;;25.13;14.80;;;2.40;99.90;;;;;;4990979;28;20023;-74
2021/12/04 05:36:04;;;;;;;23.38;13.52;;;2.40;99.90;;;;;;4974861;28;20041;-74
2021/12/04 05:38:30;;;;;;;24.65;14.45;;;2.50;99.90;;;;;;4991452;28;20045;-77
2021/12/04 05:40:56;;;;;;;29.35;15.82;;;2.50;99.90;;;;;;4991395;28;20034;-76
2021/12/04 05:43:23;;;;;;;26.02;15.05;;;2.50;99.90;;;;;;4990335;28;20042;-76
2021/12/04 05:46:03;;;;;;;27.50;16.55;;;2.60;99.90;;;;;;4991116;28;20577;-76
2021/12/04 05:53:56;;;;;;;26.88;17.50;;;2.60;99.90;;;;;;4973911;28;20059;-76
2021/12/04 05:56:23;;;;;;;24.05;13.60;;;2.60;99.90;;;;;;4973879;28;20035;-76
2021/12/04 05:58:50;;;;;;;19.55;11.52;;;2.60;99.90;;;;;;4973749;28;20030;-76
2021/12/04 06:01:17;;;;;;;17.25;10.30;;;2.60;99.90;;;;;;4972600;28;20037;-76
2021/12/04 06:03:43;;;;;;;23.02;11.82;;;2.50;99.90;;;;;;4973791;28;20462;-75
2021/12/04 06:06:09;;;;;;;66.70;39.63;;;2.40;99.90;;;;;;4973784;28;20030;-76
2021/12/04 06:08:35;;;;;;;29.85;15.63;;;2.40;99.90;;;;;;4970867;28;20449;-76
2021/12/04 06:11:01;;;;;;;29.38;15.40;;;2.30;99.90;;;;;;4973049;28;20584;-75
2021/12/04 06:13:27;;;;;;;36.05;21.27;;;2.30;99.90;;;;;;4961805;28;20055;-75
2021/12/04 06:15:54;;;;;;;47.28;25.25;;;2.20;99.90;;;;;;4957905;28;20128;-75
2021/12/04 06:18:21;;;;;;;41.70;23.60;;;2.20;99.90;;;;;;4962415;28;20033;-76
2021/12/04 06:23:33;;;;;;;72.00;44.92;;;2.20;99.90;;;;;;4969087;28;20023;-75
2021/12/04 06:26:01;;;;;;;84.50;53.30;;;2.30;99.90;;;;;;4953750;28;20577;-74
2021/12/04 06:28:27;;;;;;;95.10;57.13;;;2.40;99.90;;;;;;4953134;28;20035;-75
2021/12/04 06:30:54;;;;;;;63.85;39.88;;;2.40;99.90;;;;;;4954218;28;20038;-75
2021/12/04 06:33:21;;;;;;;64.78;43.05;;;2.40;99.90;;;;;;4957155;28;20497;-75
2021/12/04 06:35:48;;;;;;;56.85;38.47;;;2.40;99.90;;;;;;4981793;28;20049;-74
2021/12/04 06:38:16;;;;;;;59.03;35.78;;;2.40;99.90;;;;;;4973580;28;20101;-75
2021/12/04 06:40:44;;;;;;;57.13;35.83;;;2.40;99.90;;;;;;4973296;28;20041;-75
2021/12/04 06:43:10;;;;;;;53.42;35.60;;;2.40;99.90;;;;;;4987536;28;20035;-75
2021/12/04 06:45:41;;;;;;;56.78;36.45;;;2.40;99.90;;;;;;4990643;28;20062;-75
2021/12/04 06:48:13;;;;;;;72.57;42.88;;;2.50;99.90;;;;;;4953465;28;20023;-74
2021/12/04 06:53:18;;;;;;;60.35;34.97;;;2.60;99.90;;;;;;4973059;28;20019;-73
2021/12/04 06:55:48;;;;;;;57.55;37.58;;;2.60;99.90;;;;;;4975882;28;20035;-70
2021/12/04 06:58:14;;;;;;;64.90;42.25;;;2.70;99.90;;;;;;4976979;28;20031;-75
2021/12/04 07:00:40;;;;;;;70.03;43.47;;;2.80;99.90;;;;;;4976736;28;20023;-74
2021/12/04 07:03:07;;;;;;;69.10;45.50;;;2.80;99.90;;;;;;4975680;28;20413;-74
2021/12/04 07:05:33;;;;;;;58.92;39.80;;;2.80;99.90;;;;;;4974236;28;20033;-74
2021/12/04 07:08:00;;;;;;;48.92;32.53;;;2.90;99.90;;;;;;4975753;28;20041;-73
2021/12/04 07:10:26;;;;;;;47.70;32.58;;;2.90;99.90;;;;;;4976032;28;20030;-71
2021/12/04 07:12:53;;;;;;;38.63;22.73;;;2.90;99.90;;;;;;4976467;28;20039;-74
2021/12/04 07:15:19;;;;;;;40.63;25.08;;;2.80;99.90;;;;;;4975692;28;20057;-73
2021/12/04 07:17:44;;;;;;;32.25;23.02;;;2.90;99.90;;;;;;4974746;28;20109;-73
2021/12/04 07:20:11;;;;;;;39.80;23.77;;;2.80;99.90;;;;;;4976392;28;20158;-73
2021/12/04 07:22:37;;;;;;;53.20;32.35;;;2.90;99.90;;;;;;4976294;28;20035;-73
2021/12/04 07:25:04;;;;;;;69.93;40.28;;;2.80;99.90;;;;;;4975954;28;20066;-74
2021/12/04 07:27:30;;;;;;;58.53;38.35;;;2.70;99.90;;;;;;4975757;28;20037;-73
2021/12/04 07:29:57;;;;;;;69.07;42.65;;;2.70;99.90;;;;;;4976058;28;20039;-73
2021/12/04 07:32:25;;;;;;;47.40;30.75;;;2.90;99.90;;;;;;4975028;28;20434;-74
2021/12/04 07:34:51;;;;;;;35.70;24.30;;;2.80;99.90;;;;;;4976008;28;20459;-73
2021/12/04 07:37:17;;;;;;;40.38;24.50;;;3.00;99.90;;;;;;4975747;28;20031;-73
2021/12/04 07:39:43;;;;;;;37.47;20.75;;;3.10;99.90;;;;;;4976070;28;20106;-74
2021/12/04 07:42:09;;;;;;;36.03;23.02;;;3.20;99.90;;;;;;4975532;28;20461;-74
2021/12/04 07:44:35;;;;;;;31.58;20.30;;;3.30;99.90;;;;;;4975803;28;20038;-72
2021/12/04 07:47:01;;;;;;;38.17;21.80;;;3.40;99.90;;;;;;4975967;28;20385;-74
2021/12/04 07:49:27;;;;;;;33.72;19.65;;;3.50;99.90;;;;;;4975828;28;20090;-72
2021/12/04 07:51:53;;;;;;;36.67;19.10;;;3.60;99.90;;;;;;4962719;28;20034;-72
2021/12/04 07:54:19;;;;;;;30.15;17.88;;;3.60;99.90;;;;;;4956540;28;20516;-74
2021/12/04 07:56:45;;;;;;;37.78;21.98;;;3.60;99.90;;;;;;4956174;28;20058;-74
2021/12/04 07:59:11;;;;;;;32.03;20.40;;;3.80;99.90;;;;;;4956180;28;20027;-75
2021/12/04 08:01:37;;;;;;;40.47;22.65;;;3.70;99.90;;;;;;4966653;28;20051;-74
2021/12/04 08:04:04;;;;;;;55.30;34.97;;;3.90;99.90;;;;;;4975352;28;20085;-74
2021/12/04 08:06:33;;;;;;;49.33;30.90;;;3.80;99.90;;;;;;4974752;28;20027;-75
2021/12/04 08:08:59;;;;;;;48.33;26.90;;;3.80;99.90;;;;;;4973837;28;20043;-74
2021/12/04 08:11:26;;;;;;;55.58;33.08;;;3.90;99.90;;;;;;4973333;28;20041;-73
2021/12/04 08:13:53;;;;;;;57.53;34.95;;;4.00;99.90;;;;;;4974822;28;20030;-74
2021/12/04 08:16:24;;;;;;;61.08;36.85;;;3.90;99.90;;;;;;4974738;28;20062;-65
2021/12/04 08:18:53;;;;;;;56.67;32.20;;;3.90;99.90;;;;;;4975102;28;20503;-74
2021/12/04 08:21:21;;;;;;;43.08;25.95;;;4.20;99.90;;;;;;4974555;28;20073;-72
2021/12/04 08:23:48;;;;;;;41.42;25.52;;;4.10;99.10;;;;;;4970353;28;20019;-72
2021/12/04 08:26:14;;;;;;;129.57;80.07;;;4.40;99.90;;;;;;4974924;28;20034;-75
2021/12/04 08:28:40;;;;;;;54.28;30.85;;;4.20;98.60;;;;;;4974706;28;20105;-74
2021/12/04 08:31:06;;;;;;;45.28;30.48;;;4.30;98.00;;;;;;4975154;28;20026;-74
2021/12/04 08:33:32;;;;;;;81.95;51.97;;;4.10;97.00;;;;;;4975241;28;20022;-75
2021/12/04 08:35:58;;;;;;;133.10;86.03;;;4.10;97.90;;;;;;4974602;28;20078;-74
2021/12/04 08:38:24;;;;;;;77.18;46.70;;;4.30;95.30;;;;;;4975231;28;20297;-74
2021/12/04 08:40:50;;;;;;;35.50;20.65;;;4.40;95.50;;;;;;4974989;28;20528;-74
2021/12/04 08:43:16;;;;;;;28.15;13.77;;;4.50;95.40;;;;;;4975320;28;20030;-74
2021/12/04 08:45:43;;;;;;;24.67;13.85;;;4.50;94.70;;;;;;4974664;28;20030;-74
2021/12/04 08:48:09;;;;;;;26.23;13.50;;;4.70;95.30;;;;;;4973467;28;20109;-74
2021/12/04 08:50:36;;;;;;;23.30;14.55;;;4.90;96.00;;;;;;4974131;28;20050;-73
2021/12/04 08:53:03;;;;;;;22.35;11.93;;;4.40;95.40;;;;;;4974933;28;20163;-73
2021/12/04 08:55:31;;;;;;;25.17;14.90;;;4.40;93.20;;;;;;4973850;28;20493;-73
2021/12/04 08:57:57;;;;;;;24.33;14.45;;;4.50;95.30;;;;;;4973858;28;20102;-74
2021/12/04 09:00:34;;;;;;;21.95;12.55;;;4.80;98.10;;;;;;4974958;28;20465;-74
2021/12/04 09:03:02;;;;;;;18.92;9.02;;;4.70;93.60;;;;;;4974761;28;20384;-72
2021/12/04 09:05:29;;;;;;;21.48;9.27;;;5.00;93.70;;;;;;4990299;28;20370;-73
2021/12/04 09:07:55;;;;;;;21.70;11.65;;;4.80;91.90;;;;;;4973974;28;20023;-74
2021/12/04 09:10:22;;;;;;;21.10;11.85;;;4.70;93.80;;;;;;4973739;28;20031;-74
2021/12/04 09:12:49;;;;;;;24.30;11.43;;;4.60;92.70;;;;;;4961176;28;20031;-74
2021/12/04 09:15:19;;;;;;;20.42;11.18;;;4.60;95.60;;;;;;4956611;28;20055;-73
2021/12/04 09:17:45;;;;;;;19.40;8.68;;;4.60;96.50;;;;;;4960043;28;20045;-73
2021/12/04 09:20:15;;;;;;;18.45;9.77;;;4.80;93.60;;;;;;4963026;28;20031;-75
2021/12/04 09:22:41;;;;;;;18.63;11.50;;;4.80;92.60;;;;;;4955609;28;20019;-76
2021/12/04 09:25:13;;;;;;;20.90;9.82;;;4.60;93.70;;;;;;4955126;28;20027;-77
2021/12/04 09:33:45;;;;;;;19.70;10.30;;;5.00;91.60;;;;;;4974143;28;20041;-75
2021/12/04 09:36:35;;;;;;;19.52;10.77;;;5.20;92.20;;;;;;4972559;28;20035;-75
2021/12/04 10:12:34;;;;;;;19.45;9.25;;;5.40;95.80;;;;;;4967499;28;20030;-73
2021/12/04 10:34:57;;;;;;;17.08;9.52;;;5.60;95.20;;;;;;4975118;28;20507;-73
2021/12/04 10:37:28;;;;;;;15.98;8.63;;;5.60;94.80;;;;;;4974916;28;20057;-73
2021/12/04 10:40:01;;;;;;;17.55;7.68;;;5.70;94.80;;;;;;4974801;28;20043;-72
2021/12/04 10:42:33;;;;;;;18.38;10.05;;;5.70;95.10;;;;;;4974739;28;20480;-72
2021/12/04 10:45:00;;;;;;;18.08;8.65;;;5.80;94.90;;;;;;4972563;28;20077;-72
2021/12/04 10:47:27;;;;;;;17.80;9.38;;;5.80;94.20;;;;;;4957221;28;20057;-73
2021/12/04 10:55:20;;;;;;;25.08;12.60;;;5.70;94.00;;;;;;4957082;28;20455;-73
2021/12/04 11:03:06;;;;;;;19.77;11.85;;;6.00;94.80;;;;;;4957228;28;20031;-74
2021/12/04 11:27:48;;;;;;;20.27;10.05;;;6.10;96.50;;;;;;4956921;28;20035;-74
2021/12/04 11:44:01;;;;;;;48.42;23.83;;;6.80;96.20;;;;;;4956731;28;20031;-73
2021/12/04 11:46:41;;;;;;;42.58;19.52;;;6.90;96.60;;;;;;4956863;28;20062;-74
2021/12/04 11:49:14;;;;;;;28.88;16.92;;;7.00;96.90;;;;;;4956754;28;20035;-74
2021/12/04 11:51:47;;;;;;;25.20;14.07;;;6.90;95.10;;;;;;4956920;28;20039;-74
2021/12/04 11:54:13;;;;;;;24.55;13.90;;;6.90;95.90;;;;;;4956507;28;20031;-74
2021/12/04 11:56:39;;;;;;;24.83;14.60;;;6.90;95.80;;;;;;4956489;28;20023;-74
2021/12/04 11:59:06;;;;;;;23.52;11.65;;;7.00;96.60;;;;;;4956159;28;20035;-74
2021/12/04 12:01:35;;;;;;;26.23;14.90;;;6.90;95.60;;;;;;4956180;28;20016;-72
2021/12/04 12:04:10;;;;;;;36.05;21.05;;;6.90;96.30;;;;;;4956033;28;20050;-75
2021/12/04 12:06:42;;;;;;;28.90;16.40;;;7.00;98.10;;;;;;4956010;28;20031;-74
2021/12/04 12:09:15;;;;;;;;;;;7.10;97.70;;;;;;4956590;28;20035;-75
2021/12/04 12:12:14;;;;;;;48.30;26.00;;;7.10;96.80;;;;;;4956272;28;19993;-75
2021/12/04 12:14:53;;;;;;;34.70;21.95;;;7.10;97.50;;;;;;4953594;29;20043;-74
2021/12/04 12:17:34;;;;;;;50.95;28.95;;;7.10;96.90;;;;;;4954017;29;20039;-74
2021/12/04 12:20:02;;;;;;;49.88;28.17;;;7.10;98.10;;;;;;4954133;29;20031;-74
2021/12/04 12:22:38;;;;;;;54.70;30.10;;;7.20;98.10;;;;;;4954143;29;20020;-74
2021/12/04 12:25:21;;;;;;;30.27;15.82;;;7.30;97.90;;;;;;4953936;29;20075;-74
2021/12/04 12:36:03;;;;;;;37.00;22.35;;;7.50;99.40;;;;;;4953716;29;20082;-74
2021/12/04 12:38:32;;;;;;;32.85;18.27;;;7.50;97.50;;;;;;4953354;29;20074;-75
2021/12/04 12:41:03;;;;;;;44.95;25.00;;;7.50;96.20;;;;;;4953531;29;20028;-72
2021/12/04 12:43:55;;;;;;;27.85;16.00;;;7.60;97.40;;;;;;4953478;29;20058;-74
2021/12/04 12:46:34;;;;;;;53.70;24.58;;;7.70;97.30;;;;;;4915123;29;20462;-74
2021/12/04 12:49:01;;;;;;;37.92;24.27;;;7.70;94.80;;;;;;4915411;29;20044;-75
2021/12/04 12:51:33;;;;;;;47.42;28.17;;;7.60;94.20;;;;;;4934475;29;20058;-74
2021/12/04 12:54:02;;;;;;;33.38;21.13;;;7.70;94.30;;;;;;4933866;29;20032;-74
2021/12/04 12:56:31;;;;;;;29.27;17.17;;;7.70;93.70;;;;;;4934270;29;20039;-73
2021/12/04 13:13:36;;;;;;;45.38;26.85;;;7.70;94.70;;;;;;4933462;29;20052;-76
2021/12/04 13:16:18;;;;;;;43.33;28.00;;;7.80;96.10;;;;;;4941766;29;20055;-76
2021/12/04 13:18:50;;;;;;;26.55;12.80;;;7.90;95.50;;;;;;4936768;29;20039;-76
2021/12/04 13:21:16;;;;;;;23.05;12.75;;;7.80;93.90;;;;;;4952872;29;20035;-76
2021/12/04 13:23:49;;;;;;;26.35;15.02;;;7.70;94.20;;;;;;4965800;28;20038;-76
2021/12/04 13:26:15;;;;;;;;;;;7.60;95.10;;;;;;4974488;28;20033;-74
2021/12/04 13:28:45;;;;;;;25.90;14.05;;;7.50;94.90;;;;;;4973714;28;19910;-75
2021/12/04 13:31:12;;;;;;;25.45;15.57;;;7.50;94.50;;;;;;4974293;28;20042;-74
2021/12/04 13:33:45;;;;;;;28.85;16.40;;;7.50;94.60;;;;;;4974134;28;20053;-75
2021/12/04 13:36:17;;;;;;;34.80;17.15;;;7.40;95.60;;;;;;4974234;28;20085;-76
2021/12/04 13:38:43;;;;;;;49.47;29.23;;;7.50;96.70;;;;;;4974060;28;20042;-75
2021/12/04 13:41:10;;;;;;;47.33;28.58;;;7.50;96.20;;;;;;4973657;28;20031;-75
2021/12/04 13:43:38;;;;;;;33.78;19.27;;;7.50;96.50;;;;;;4973380;28;20019;-76
2021/12/04 13:46:05;;;;;;;33.80;20.00;;;7.60;96.30;;;;;;4973664;28;20110;-74
2021/12/04 13:48:33;;;;;;;38.22;23.88;;;7.60;95.80;;;;;;4972521;28;20035;-74
2021/12/04 13:50:59;;;;;;;28.83;15.35;;;7.60;96.30;;;;;;4973235;28;20086;-75
2021/12/04 13:53:34;;;;;;;28.98;19.00;;;7.50;95.20;;;;;;4973695;28;20500;-75
2021/12/04 13:56:11;;;;;;;30.77;18.40;;;7.50;95.10;;;;;;4967250;28;20515;-75
2021/12/04 13:58:54;;;;;;;35.78;22.08;;;7.40;95.90;;;;;;4956495;28;20122;-75
2021/12/04 14:01:21;;;;;;;44.63;25.23;;;7.40;97.30;;;;;;4954533;28;20031;-74
2021/12/04 14:03:48;;;;;;;35.85;22.55;;;7.40;96.50;;;;;;4954074;28;20143;-75
2021/12/04 14:06:17;;;;;;;51.40;32.50;;;7.40;97.30;;;;;;4954321;28;20031;-74
2021/12/04 14:08:54;;;;;;;30.30;17.88;;;7.30;98.80;;;;;;4953694;28;20027;-73
2021/12/04 14:11:35;;;;;;;43.42;22.88;;;7.20;97.70;;;;;;4953828;28;20050;-75
2021/12/04 14:14:17;;;;;;;39.90;22.45;;;7.20;97.90;;;;;;4969293;28;20106;-73
2021/12/04 14:16:45;;;;;;;39.20;20.67;;;7.10;98.70;;;;;;4972159;28;20588;-74
2021/12/04 14:19:17;;;;;;;28.27;16.35;;;7.10;99.00;;;;;;4972260;28;20105;-73
2021/12/04 14:22:03;;;;;;;31.20;17.40;;;7.00;99.20;;;;;;4962262;28;20493;-74
2021/12/04 14:24:34;;;;;;;36.78;19.35;;;7.00;99.70;;;;;;4961259;28;20430;-76
2021/12/04 14:27:02;;;;;;;39.42;24.17;;;6.90;99.90;;;;;;4959933;28;20042;-74
2021/12/04 14:29:46;;;;;;;38.30;23.73;;;6.90;99.90;;;;;;4972969;28;20074;-74
2021/12/04 14:32:16;;;;;;;36.72;24.52;;;6.80;99.90;;;;;;4969761;28;20086;-74
2021/12/04 14:34:43;;;;;;;49.65;30.13;;;6.80;99.90;;;;;;4961894;28;20026;-75
2021/12/04 14:37:16;;;;;;;52.30;32.78;;;6.70;99.90;;;;;;4962139;28;20347;-77
2021/12/04 14:39:45;;;;;;;43.10;25.38;;;6.70;99.90;;;;;;4960394;28;20431;-74
2021/12/04 14:42:16;;;;;;;37.95;24.90;;;6.70;99.90;;;;;;4963241;28;20536;-76
2021/12/04 14:44:46;;;;;;;36.72;22.40;;;6.70;99.90;;;;;;4961969;28;20027;-76
2021/12/04 14:47:13;;;;;;;39.72;22.77;;;6.60;99.90;;;;;;4964920;28;20035;-75
2021/12/04 14:49:42;;;;;;;31.83;19.40;;;6.50;99.90;;;;;;4961337;28;20114;-74
2021/12/04 14:52:08;;;;;;;35.20;21.40;;;6.50;99.90;;;;;;4962438;28;20022;-76
2021/12/04 14:54:38;;;;;;;42.08;26.83;;;6.40;99.90;;;;;;4962087;28;20024;-66
2021/12/04 14:57:16;;;;;;;52.80;33.05;;;6.40;99.90;;;;;;4977099;28;20442;-75
2021/12/04 14:59:43;;;;;;;62.33;37.80;;;6.30;99.90;;;;;;4964393;28;20086;-75
2021/12/04 15:02:21;;;;;;;83.88;43.53;;;6.30;99.90;;;;;;4968308;28;20050;-74
2021/12/04 15:04:47;;;;;;;78.28;40.45;;;6.20;99.90;;;;;;4971636;28;20500;-74
2021/12/04 15:07:21;;;;;;;160.60;80.70;;;6.20;99.90;;;;;;4973352;28;20022;-75
2021/12/04 15:09:47;;;;;;;87.43;43.72;;;6.20;99.90;;;;;;4973171;28;20039;-75
2021/12/04 15:12:25;;;;;;;72.43;38.70;;;6.10;99.90;;;;;;4973269;28;20042;-76
2021/12/04 15:14:56;;;;;;;69.43;41.33;;;6.10;99.90;;;;;;4972458;28;20046;-76
2021/12/04 15:17:23;;;;;;;82.05;48.30;;;6.10;99.90;;;;;;4976920;28;20388;-66
2021/12/04 15:19:53;;;;;;;85.55;54.08;;;6.00;99.90;;;;;;4976892;28;20055;-73
2021/12/04 15:22:28;;;;;;;66.97;43.03;;;6.00;99.90;;;;;;4976630;28;20106;-76
2021/12/04 15:24:55;;;;;;;76.28;45.70;;;6.00;99.90;;;;;;4976307;28;20030;-77
2021/12/04 15:27:23;;;;;;;83.45;48.28;;;5.90;99.90;;;;;;4976191;28;20033;-76
2021/12/04 15:29:53;;;;;;;79.60;46.75;;;5.90;99.90;;;;;;4976160;28;20125;-76
2021/12/04 15:32:21;;;;;;;51.90;33.20;;;5.90;99.90;;;;;;4976522;28;20031;-77
2021/12/04 15:34:58;;;;;;;51.60;32.60;;;5.90;99.90;;;;;;4969628;28;20058;-77
2021/12/04 15:37:29;;;;;;;56.60;36.03;;;5.80;99.90;;;;;;4964317;28;20054;-66
2021/12/04 15:39:55;;;;;;;64.43;42.78;;;5.80;99.90;;;;;;4964573;28;20035;-76
2021/12/04 15:42:28;;;;;;;55.20;38.33;;;5.80;99.90;;;;;;4967051;28;20019;-75
2021/12/04 15:47:47;;;;;;;69.75;45.58;;;5.70;99.90;;;;;;4964216;28;20051;-76
2021/12/04 15:53:10;;;;;;;55.53;34.65;;;5.70;99.90;;;;;;4964582;28;19917;-76
2021/12/04 15:55:49;;;;;;;54.13;35.22;;;5.70;99.90;;;;;;4963238;28;20027;-70
2021/12/04 15:58:21;;;;;;;66.95;37.70;;;5.60;99.90;;;;;;4958422;28;20039;-74
2021/12/04 16:00:54;;;;;;;72.55;39.92;;;5.60;99.90;;;;;;4956199;29;20059;-73
2021/12/04 16:03:23;;;;;;;85.15;48.20;;;5.60;99.90;;;;;;4956367;28;20034;-76
2021/12/04 16:05:52;;;;;;;86.57;50.90;;;5.60;99.90;;;;;;4956543;28;20025;-76
2021/12/04 16:08:24;;;;;;;89.95;47.10;;;5.60;99.90;;;;;;4956288;28;20042;-70
2021/12/04 16:10:51;;;;;;;91.97;53.53;;;5.50;99.90;;;;;;4956223;28;20090;-72